createdAt,value
2018-02-27T00:00:00.576Z,102257.03
2018-02-27T00:05:02.836Z,102254.53
2018-02-27T00:10:04.346Z,102246.02
2018-02-27T00:15:05.939Z,102239.55
2018-02-27T00:20:07.311Z,102233.61
2018-02-27T00:25:08.792Z,102236.85
2018-02-27T00:30:10.199Z,102227.64
2018-02-27T00:35:11.680Z,102228.41
2018-02-27T00:40:13.200Z,102225.09
2018-02-27T00:45:14.547Z,102227.31
2018-02-27T00:50:16.086Z,102225.72
2018-02-27T00:55:17.556Z,102214.84
2018-02-27T01:00:19.003Z,102218.89
2018-02-27T01:05:21.173Z,102207.96
2018-02-27T01:10:22.700Z,102208.65
2018-02-27T01:15:24.902Z,102196.01
2018-02-27T01:20:26.380Z,102195.81
2018-02-27T01:25:27.912Z,102186.07
2018-02-27T01:30:30.174Z,102184.05
2018-02-27T01:35:31.478Z,102187.19
2018-02-27T01:40:33.019Z,102187.72
2018-02-27T01:45:34.546Z,102174.99
2018-02-27T01:50:36.083Z,102177.39
2018-02-27T01:55:38.411Z,102172.81
2018-02-27T02:00:39.889Z,102167.97
2018-02-27T02:05:42.172Z,102163.94
2018-02-27T02:10:43.702Z,102160.03
2018-02-27T02:15:45.970Z,102163.19
2018-02-27T02:20:47.433Z,102153.73
2018-02-27T02:25:48.936Z,102151.25
2018-02-27T02:30:50.460Z,102146.02
2018-02-27T02:35:52.001Z,102145.80
2018-02-27T02:40:53.499Z,102142.48
2018-02-27T02:45:54.999Z,102136.70
2018-02-27T02:50:56.454Z,102141.20
2018-02-27T02:55:58.726Z,102133.52
2018-02-27T03:01:00.184Z,102140.25
2018-02-27T03:06:01.736Z,102141.71
2018-02-27T03:11:03.047Z,102135.29
2018-02-27T03:16:05.345Z,102129.10
2018-02-27T03:21:06.927Z,102125.20
2018-02-27T03:26:08.461Z,102133.25
2018-02-27T03:31:09.997Z,102123.47
2018-02-27T03:36:11.493Z,102110.63
2018-02-27T03:41:13.069Z,102105.82
2018-02-27T03:46:14.565Z,102107.03
2018-02-27T03:51:16.060Z,102102.64
2018-02-27T03:56:17.450Z,102099.11
2018-02-27T04:01:18.975Z,102092.83
2018-02-27T04:06:20.538Z,102085.59
2018-02-27T04:11:21.909Z,102087.66
2018-02-27T04:16:23.454Z,102086.50
2018-02-27T04:21:31.819Z,102068.08
2018-02-27T04:26:33.403Z,102079.83
2018-02-27T04:31:34.954Z,102073.91
2018-02-27T04:36:36.492Z,102079.74
2018-02-27T04:41:38.263Z,102073.14
2018-02-27T04:46:40.368Z,102079.67
2018-02-27T04:51:41.943Z,102084.73
2018-02-27T04:56:43.507Z,102079.91
2018-02-27T05:01:45.683Z,102071.33
2018-02-27T05:06:47.187Z,102073.84
2018-02-27T05:11:48.679Z,102073.55
2018-02-27T05:16:50.176Z,102064.78
2018-02-27T05:21:51.690Z,102056.72
2018-02-27T05:26:53.425Z,102058.22
2018-02-27T05:31:54.804Z,102057.07
2018-02-27T05:36:56.313Z,102055.78
2018-02-27T05:42:04.873Z,102049.11
2018-02-27T05:47:06.454Z,102065.62
2018-02-27T05:52:07.791Z,102055.71
2018-02-27T05:57:09.394Z,102064.45
2018-02-27T06:02:10.746Z,102060.25
2018-02-27T06:07:12.285Z,102053.63
2018-02-27T06:12:13.826Z,102076.11
2018-02-27T06:17:15.346Z,102077.63
2018-02-27T06:22:16.876Z,102067.66
2018-02-27T06:27:18.404Z,102068.56
2018-02-27T06:32:19.921Z,102068.83
2018-02-27T06:37:21.506Z,102065.61
2018-02-27T06:47:25.262Z,102060.25
2018-02-27T06:52:27.575Z,102055.64
2018-02-27T06:57:28.941Z,102049.77
2018-02-27T07:02:30.511Z,102029.03
2018-02-27T07:07:32.074Z,102040.67
2018-02-27T07:12:34.353Z,102039.38
2018-02-27T07:17:35.866Z,102034.96
2018-02-27T07:22:38.172Z,102027.23
2018-02-27T07:27:39.725Z,102018.32
2018-02-27T07:32:41.332Z,102019.53
2018-02-27T07:37:42.860Z,102023.53
2018-02-27T07:42:44.411Z,102043.13
2018-02-27T07:47:45.971Z,102032.81
2018-02-27T07:52:47.548Z,102036.45
2018-02-27T07:57:49.861Z,102031.34
2018-02-27T08:02:52.201Z,102030.56
2018-02-27T08:07:53.726Z,102030.12
2018-02-27T08:12:55.276Z,102019.44
2018-02-27T08:17:56.816Z,102024.80
2018-02-27T08:22:58.380Z,102025.38
2018-02-27T08:27:59.893Z,102018.94
2018-02-27T08:33:01.425Z,102000.48
2018-02-27T08:38:02.980Z,102026.09
2018-02-27T08:43:04.479Z,102022.47
2018-02-27T08:48:06.040Z,102018.23
2018-02-27T08:53:07.653Z,102021.91
2018-02-27T08:58:09.315Z,102019.30
2018-02-27T09:03:10.867Z,101995.38
2018-02-27T09:08:12.418Z,102008.00
2018-02-27T09:13:13.954Z,101984.55
2018-02-27T09:18:15.497Z,101982.75
2018-02-27T09:23:17.755Z,101988.45
2018-02-27T09:28:19.273Z,101973.53
2018-02-27T09:33:20.665Z,101967.62
2018-02-27T09:38:22.173Z,101962.96
2018-02-27T09:43:23.631Z,101959.35
2018-02-27T09:48:25.166Z,101957.31
2018-02-27T09:53:27.444Z,101964.75
2018-02-27T09:58:28.939Z,101964.64
2018-02-27T10:03:30.487Z,101950.67
2018-02-27T10:08:32.116Z,101950.56
2018-02-27T10:13:33.636Z,101952.05
2018-02-27T10:18:35.198Z,101942.09
2018-02-27T10:23:36.753Z,101946.60
2018-02-27T10:28:39.053Z,101941.18
2018-02-27T10:33:41.367Z,101936.20
2018-02-27T10:38:43.663Z,101931.69
2018-02-27T10:43:45.214Z,101930.11
2018-02-27T10:48:46.752Z,101922.55
2018-02-27T10:53:48.101Z,101915.84
2018-02-27T10:58:49.672Z,101916.19
2018-02-27T11:03:51.199Z,101906.59
2018-02-27T11:08:52.731Z,101903.72
2018-02-27T11:13:54.282Z,101916.00
2018-02-27T11:18:55.885Z,101896.84
2018-02-27T11:23:57.444Z,101891.14
2018-02-27T11:28:58.971Z,101886.63
2018-02-27T11:34:00.524Z,101872.80
2018-02-27T11:39:02.072Z,101863.91
2018-02-27T11:44:03.579Z,101854.39
2018-02-27T11:49:05.661Z,101855.02
2018-02-27T11:54:07.310Z,101852.75
2018-02-27T11:59:09.638Z,101853.23
2018-02-27T12:04:11.139Z,101839.20
2018-02-27T12:09:12.744Z,101836.83
2018-02-27T12:14:14.336Z,101829.04
2018-02-27T12:19:15.845Z,101824.03
2018-02-27T12:24:17.179Z,101823.81
2018-02-27T12:29:18.638Z,101825.47
2018-02-27T12:34:20.072Z,101823.72
2018-02-27T12:39:21.582Z,101822.65
2018-02-27T12:44:23.101Z,101823.75
2018-02-27T12:49:24.450Z,101817.90
2018-02-27T12:54:26.747Z,101804.70
2018-02-27T12:59:28.290Z,101791.70
2018-02-27T13:04:29.648Z,101786.64
2018-02-27T13:09:31.979Z,101777.15
2018-02-27T13:14:33.543Z,101767.07
2018-02-27T13:19:35.100Z,101768.77
2018-02-27T13:24:36.672Z,101762.17
2018-02-27T13:29:38.277Z,101760.76
2018-02-27T13:34:39.833Z,101758.19
2018-02-27T13:39:41.928Z,101752.19
2018-02-27T13:44:44.121Z,101742.89
2018-02-27T13:49:45.655Z,101749.37
2018-02-27T13:54:47.945Z,101760.53
2018-02-27T13:59:49.539Z,101748.37
2018-02-27T14:04:51.809Z,101727.75
2018-02-27T14:09:53.378Z,101734.13
2018-02-27T14:14:54.907Z,101727.33
2018-02-27T14:19:56.454Z,101712.57
2018-02-27T14:24:58.767Z,101709.91
2018-02-27T14:30:00.332Z,101704.80
2018-02-27T14:35:01.847Z,101702.05
2018-02-27T14:40:03.424Z,101697.41
2018-02-27T14:45:04.968Z,101694.69
2018-02-27T14:50:06.313Z,101686.09
2018-02-27T14:55:08.634Z,101685.00
2018-02-27T15:00:10.975Z,101677.47
2018-02-27T15:05:12.565Z,101661.91
2018-02-27T15:10:14.112Z,101668.16
2018-02-27T15:15:15.667Z,101662.46
2018-02-27T15:20:17.220Z,101653.91
2018-02-27T15:25:18.965Z,101650.53
2018-02-27T15:30:20.495Z,101641.48
2018-02-27T15:35:22.020Z,101659.00
2018-02-27T15:40:24.366Z,101666.81
2018-02-27T15:45:26.937Z,101664.56
2018-02-27T15:50:29.249Z,101665.21
2018-02-27T15:55:30.836Z,101667.17
2018-02-27T16:00:32.358Z,101664.72
2018-02-27T16:05:33.910Z,101660.19
2018-02-27T16:10:35.438Z,101663.45
2018-02-27T16:15:37.520Z,101659.42
2018-02-27T16:20:39.087Z,101665.49
2018-02-27T16:25:40.738Z,101672.06
2018-02-27T16:30:43.088Z,101669.89
2018-02-27T16:35:44.710Z,101661.95
2018-02-27T16:40:46.104Z,101659.72
2018-02-27T16:45:47.756Z,101653.95
2018-02-27T16:50:49.293Z,101666.09
2018-02-27T16:55:50.903Z,101657.03
2018-02-27T17:00:52.441Z,101661.92
2018-02-27T17:05:53.913Z,101673.45
2018-02-27T17:10:55.481Z,101674.97
2018-02-27T17:15:56.837Z,101674.19
2018-02-27T17:20:58.356Z,101671.33
2018-02-27T17:25:59.946Z,101674.70
2018-02-27T17:31:01.479Z,101690.96
2018-02-27T17:36:03.701Z,101699.48
2018-02-27T17:41:05.300Z,101694.22
2018-02-27T17:46:06.865Z,101694.35
2018-02-27T17:51:08.443Z,101698.48
2018-02-27T17:56:10.031Z,101701.56
2018-02-27T18:01:11.932Z,101699.19
2018-02-27T18:06:13.392Z,101700.61
2018-02-27T18:11:15.077Z,101702.00
2018-02-27T18:16:16.588Z,101707.45
2018-02-27T18:21:18.523Z,101699.38
2018-02-27T18:26:20.131Z,101707.34
2018-02-27T18:31:21.734Z,101701.16
2018-02-27T18:36:23.219Z,101708.55
2018-02-27T18:41:24.676Z,101707.22
2018-02-27T18:46:26.693Z,101700.70
2018-02-27T18:51:28.240Z,101708.23
2018-02-27T18:56:30.497Z,101712.39
2018-02-27T19:01:32.041Z,101709.30
2018-02-27T19:06:34.503Z,101710.98
2018-02-27T19:11:36.184Z,101711.56
2018-02-27T19:16:37.755Z,101717.26
2018-02-27T19:21:40.080Z,101716.06
2018-02-27T19:26:41.726Z,101711.69
2018-02-27T19:31:43.304Z,101721.64
2018-02-27T19:36:44.941Z,101725.88
2018-02-27T19:41:47.282Z,101724.38
2018-02-27T19:46:48.925Z,101721.90
2018-02-27T19:51:50.571Z,101730.99
2018-02-27T19:56:52.124Z,101731.14
2018-02-27T20:01:53.640Z,101743.38
2018-02-27T20:06:55.992Z,101754.52
2018-02-27T20:11:57.385Z,101754.38
2018-02-27T20:16:58.917Z,101754.46
2018-02-27T20:22:00.407Z,101761.86
2018-02-27T20:27:02.045Z,101772.34
2018-02-27T20:32:03.674Z,101766.88
2018-02-27T20:37:05.243Z,101775.45
2018-02-27T20:42:06.828Z,101774.42
2018-02-27T20:47:08.396Z,101780.64
2018-02-27T20:52:09.744Z,101782.39
2018-02-27T20:57:11.263Z,101779.05
2018-02-27T21:02:12.812Z,101778.38
2018-02-27T21:07:14.400Z,101780.17
2018-02-27T21:12:15.994Z,101794.80
2018-02-27T21:17:18.334Z,101795.41
2018-02-27T21:22:19.931Z,101799.52
2018-02-27T21:27:21.509Z,101804.44
2018-02-27T21:32:23.030Z,101816.14
2018-02-27T21:37:24.583Z,101817.53
2018-02-27T21:42:26.155Z,101823.36
2018-02-27T21:47:27.723Z,101825.45
2018-02-27T21:52:29.348Z,101824.29
2018-02-27T21:57:30.916Z,101823.09
2018-02-27T22:02:32.444Z,101836.05
2018-02-27T22:07:34.014Z,101836.31
2018-02-27T22:12:35.506Z,101834.88
2018-02-27T22:17:37.074Z,101848.41
2018-02-27T22:22:38.688Z,101859.09
2018-02-27T22:27:40.217Z,101853.88
2018-02-27T22:32:42.631Z,101852.07
2018-02-27T22:37:44.238Z,101861.92
2018-02-27T22:42:45.885Z,101865.87
2018-02-27T22:47:47.477Z,101870.22
2018-02-27T22:52:49.059Z,101879.00
2018-02-27T22:57:50.640Z,101879.94
2018-02-27T23:02:52.355Z,101886.02
2018-02-27T23:07:53.977Z,101887.78
2018-02-27T23:12:55.526Z,101886.28
2018-02-27T23:17:57.085Z,101880.56
2018-02-27T23:22:58.615Z,101888.72
2018-02-27T23:28:01.135Z,101892.95
2018-02-27T23:33:09.747Z,101897.18
2018-02-27T23:38:11.136Z,101907.80
2018-02-27T23:43:12.531Z,101900.86
2018-02-27T23:48:14.083Z,101899.13
2018-02-27T23:53:15.557Z,101901.53
2018-02-27T23:58:17.002Z,101902.42
